Time;durP1;ratioP1;P1;durP2;ratioP2;P2;SDS_P1;SDS_P2;PMS_P1;PMS_P2;Temp;Humidity;BMP_temperature;BMP_pressure;BME280_temperature;BME280_humidity;BME280_pressure;Samples;Min_cycle;Max_cycle;Signal;HPM_P1;HPM_P2
2021/08/12 00:00:18;;;;;;;8.63;6.32;;;;;;;12.94;100.00;93552.91;2089659;28;20033;-86
2021/08/12 00:01:20;;;;;;;7.30;6.55;;;;;;;12.90;100.00;93558.34;2089502;28;20064;-88
2021/08/12 00:02:21;;;;;;;6.90;5.90;;;;;;;12.83;100.00;93558.53;2106246;28;20489;-84
2021/08/12 00:03:22;;;;;;;6.57;5.88;;;;;;;12.73;100.00;93556.81;2103681;28;20034;-87
2021/08/12 00:04:23;;;;;;;7.43;6.30;;;;;;;12.78;100.00;93565.13;2089922;28;20037;-87
2021/08/12 00:05:23;;;;;;;8.23;6.18;;;;;;;12.85;100.00;93550.78;2089848;28;20072;-86
2021/08/12 00:06:24;;;;;;;11.00;6.85;;;;;;;12.77;100.00;93557.50;2097507;28;20106;-88
2021/08/12 00:07:25;;;;;;;6.57;5.47;;;;;;;12.80;100.00;93553.97;2089643;28;20385;-85
2021/08/12 00:08:26;;;;;;;9.05;6.88;;;;;;;12.75;100.00;93547.19;2105090;28;20024;-85
2021/08/12 00:09:27;;;;;;;6.55;5.95;;;;;;;12.79;100.00;93549.81;2106381;28;20032;-87
2021/08/12 00:10:28;;;;;;;6.57;5.78;;;;;;;12.72;100.00;93547.28;2097950;28;20029;-87
2021/08/12 00:11:29;;;;;;;7.10;6.45;;;;;;;12.76;100.00;93554.06;2089742;28;20481;-86
2021/08/12 00:12:30;;;;;;;7.30;6.60;;;;;;;12.75;100.00;93549.13;2097379;28;20052;-88
2021/08/12 00:13:32;;;;;;;7.32;6.47;;;;;;;12.77;100.00;93549.44;2097638;28;20024;-86
2021/08/12 00:14:33;;;;;;;7.80;5.97;;;;;;;12.77;100.00;93550.19;2098278;28;20023;-85
2021/08/12 00:15:34;;;;;;;7.25;6.55;;;;;;;12.68;100.00;93552.72;2097995;28;20024;-86
2021/08/12 00:16:35;;;;;;;6.78;5.53;;;;;;;12.63;100.00;93550.53;2097186;28;20507;-85
2021/08/12 00:17:36;;;;;;;7.63;6.57;;;;;;;12.57;100.00;93555.66;2097577;28;20024;-83
2021/08/12 00:18:37;;;;;;;6.05;5.43;;;;;;;12.59;100.00;93547.16;2089183;28;20573;-88
2021/08/12 00:19:38;;;;;;;6.93;6.32;;;;;;;12.54;100.00;93553.03;2106506;28;20085;-85
2021/08/12 00:20:39;;;;;;;9.60;6.10;;;;;;;12.54;100.00;93561.09;2097860;28;20062;-87
2021/08/12 00:21:41;;;;;;;6.43;5.82;;;;;;;12.56;100.00;93558.75;2097963;28;20035;-84
2021/08/12 00:22:42;;;;;;;7.55;6.35;;;;;;;12.61;100.00;93552.88;2110417;28;20055;-86
2021/08/12 00:23:43;;;;;;;7.25;6.55;;;;;;;12.58;100.00;93549.09;2089111;28;20134;-85
2021/08/12 00:24:44;;;;;;;7.15;6.28;;;;;;;12.57;100.00;93550.28;2097864;28;20020;-86
2021/08/12 00:25:48;;;;;;;9.10;6.40;;;;;;;12.62;100.00;93554.38;2089367;28;20032;-86
2021/08/12 00:26:49;;;;;;;7.93;6.13;;;;;;;12.48;100.00;93560.81;2090408;28;20025;-85
2021/08/12 00:27:50;;;;;;;6.95;6.00;;;;;;;12.50;100.00;93552.34;2089689;28;20138;-85
2021/08/12 00:28:51;;;;;;;8.02;5.90;;;;;;;12.52;100.00;93558.81;2089334;28;20115;-84
2021/08/12 00:29:52;;;;;;;7.88;6.05;;;;;;;12.56;100.00;93545.34;2097331;28;20477;-85
2021/08/12 00:30:53;;;;;;;6.50;5.90;;;;;;;12.48;100.00;93550.09;2106181;28;20055;-85
2021/08/12 00:31:54;;;;;;;8.00;6.38;;;;;;;12.49;100.00;93546.25;2097716;28;20422;-87
2021/08/12 00:32:54;;;;;;;6.63;6.03;;;;;;;12.48;100.00;93552.78;2097864;28;20063;-85
2021/08/12 00:33:55;;;;;;;8.35;6.38;;;;;;;12.54;100.00;93553.03;2097590;28;20393;-84
2021/08/12 00:34:56;;;;;;;8.98;6.50;;;;;;;12.48;100.00;93550.09;2089088;28;20075;-86
2021/08/12 00:35:57;;;;;;;6.97;6.32;;;;;;;12.52;100.00;93550.78;2097598;28;20531;-85
2021/08/12 00:36:58;;;;;;;6.78;6.10;;;;;;;12.52;100.00;93547.34;2097657;28;20028;-86
2021/08/12 00:37:59;;;;;;;7.55;6.38;;;;;;;12.48;100.00;93552.03;2096138;28;20021;-84
2021/08/12 00:39:00;;;;;;;7.28;6.57;;;;;;;12.47;100.00;93550.53;2114421;28;20016;-85
2021/08/12 00:40:01;;;;;;;7.03;6.32;;;;;;;12.46;100.00;93549.00;2114372;28;20431;-84
2021/08/12 00:41:02;;;;;;;6.15;5.55;;;;;;;12.46;100.00;93557.78;2113827;28;20089;-87
2021/08/12 00:42:03;;;;;;;7.15;6.10;;;;;;;12.46;100.00;93546.31;2096935;28;20032;-84
2021/08/12 00:43:04;;;;;;;9.30;6.43;;;;;;;12.40;100.00;93542.63;2096637;28;20143;-84
2021/08/12 00:44:06;;;;;;;6.88;6.22;;;;;;;12.32;100.00;93548.13;2105989;28;20535;-87
2021/08/12 00:45:08;;;;;;;9.20;5.93;;;;;;;12.34;100.00;93550.41;2097648;28;20032;-87
2021/08/12 00:46:09;;;;;;;7.07;6.38;;;;;;;12.37;100.00;93552.25;2097381;28;20024;-86
2021/08/12 00:47:10;;;;;;;7.43;5.82;;;;;;;12.37;100.00;93551.50;2114482;28;20023;-87
2021/08/12 00:48:11;;;;;;;7.18;6.15;;;;;;;12.32;100.00;93558.84;2097435;28;20017;-86
2021/08/12 00:49:12;;;;;;;6.18;5.60;;;;;;;12.33;100.00;93555.00;2089273;28;20170;-86
2021/08/12 00:50:13;;;;;;;8.30;6.38;;;;;;;12.33;100.00;93556.94;2089228;28;20036;-86
2021/08/12 00:51:14;;;;;;;7.88;6.30;;;;;;;12.29;100.00;93554.34;2089414;28;20588;-87
2021/08/12 00:52:15;;;;;;;7.13;6.43;;;;;;;12.37;100.00;93557.59;2097179;28;20107;-84
2021/08/12 00:53:17;;;;;;;6.30;5.70;;;;;;;12.38;100.00;93556.47;2089369;28;20029;-86
2021/08/12 00:54:19;;;;;;;10.82;7.07;;;;;;;12.36;100.00;93556.09;2089424;28;20029;-85
2021/08/12 00:55:20;;;;;;;7.63;6.40;;;;;;;12.32;100.00;93553.50;2089641;28;20144;-85
2021/08/12 00:56:20;;;;;;;7.82;6.13;;;;;;;12.28;100.00;93557.41;2089377;28;20071;-87
2021/08/12 00:57:22;;;;;;;6.50;5.80;;;;;;;12.29;100.00;93556.25;2089251;28;20555;-86
2021/08/12 00:58:23;;;;;;;6.75;6.15;;;;;;;12.25;100.00;93558.28;2097477;28;20061;-87
2021/08/12 00:59:27;;;;;;;7.50;6.70;;;;;;;12.26;100.00;93557.09;2106053;28;20024;-84
2021/08/12 01:00:28;;;;;;;8.07;6.35;;;;;;;12.24;100.00;93557.50;2097911;28;20028;-85
2021/08/12 01:01:30;;;;;;;11.00;6.20;;;;;;;12.26;100.00;93555.16;2097709;28;20460;-86
2021/08/12 01:02:31;;;;;;;7.40;5.90;;;;;;;12.24;100.00;93556.75;2096632;28;20461;-86
2021/08/12 01:03:32;;;;;;;6.78;6.07;;;;;;;12.23;100.00;93557.91;2095538;28;20020;-86
2021/08/12 01:04:33;;;;;;;7.65;6.85;;;;;;;12.24;100.00;93556.75;2104133;28;20027;-87
2021/08/12 01:05:34;;;;;;;7.63;6.15;;;;;;;12.20;100.00;93556.81;2097309;28;20036;-89
2021/08/12 01:06:52;;;;;;;8.63;6.07;;;;;;;12.16;100.00;93560.72;2097345;28;20131;-84
2021/08/12 01:08:29;;;;;;;6.13;5.47;;;;;;;12.14;100.00;93557.72;2084335;28;20036;-85
2021/08/12 01:09:41;;;;;;;7.00;5.60;;;;;;;12.09;100.00;93559.72;2077825;28;20081;-86
2021/08/12 01:10:48;;;;;;;6.45;5.85;;;;;;;12.04;100.00;93557.53;2089139;28;20033;-84
2021/08/12 01:11:59;;;;;;;6.10;5.50;;;;;;;12.07;100.00;93553.25;2099630;28;20024;-86
2021/08/12 01:13:09;;;;;;;6.38;5.78;;;;;;;12.07;100.00;93563.97;2097313;28;20017;-84
2021/08/12 01:14:34;;;;;;;6.28;5.68;;;;;;;12.05;100.00;93561.72;2083367;28;20021;-85
2021/08/12 01:15:40;;;;;;;6.10;5.50;;;;;;;12.06;100.00;93557.09;2084759;28;20460;-85
2021/08/12 01:16:54;;;;;;;7.45;5.82;;;;;;;12.07;100.00;93561.28;2082374;28;20033;-86
2021/08/12 01:18:02;;;;;;;7.38;6.15;;;;;;;12.06;100.00;93563.22;2085089;28;20028;-85
2021/08/12 01:19:35;;;;;;;6.68;5.97;;;;;;;12.04;100.00;93565.56;2090228;28;20112;-85
2021/08/12 01:20:58;;;;;;;7.90;6.25;;;;;;;12.01;100.00;93557.59;2091370;28;20115;-87
2021/08/12 01:22:05;;;;;;;7.00;5.53;;;;;;;12.09;100.00;93554.34;2092865;28;20016;-84
2021/08/12 01:23:10;;;;;;;7.15;6.07;;;;;;;12.02;100.00;93557.19;2098172;28;20032;-84
2021/08/12 01:24:13;;;;;;;9.07;6.20;;;;;;;11.95;100.00;93554.66;2097327;28;20031;-85
2021/08/12 01:25:26;;;;;;;6.97;5.57;;;;;;;11.97;100.00;93554.22;2105915;28;20024;-88
2021/08/12 01:26:31;;;;;;;6.70;5.53;;;;;;;11.95;100.00;93557.34;2088738;28;20079;-87
2021/08/12 01:27:35;;;;;;;6.75;5.65;;;;;;;11.98;100.00;93553.81;2085831;28;20064;-87
2021/08/12 01:28:42;;;;;;;9.25;6.03;;;;;;;12.01;100.00;93554.91;2097494;28;20081;-87
2021/08/12 01:30:01;;;;;;;6.70;6.10;;;;;;;12.02;100.00;93553.75;2097940;28;20544;-85
2021/08/12 01:31:17;;;;;;;7.53;5.93;;;;;;;11.97;100.00;93554.97;2093445;28;20148;-84
2021/08/12 01:32:26;;;;;;;6.80;5.75;;;;;;;11.93;100.00;93553.53;2086862;28;20095;-85
2021/08/12 01:33:43;;;;;;;9.77;5.72;;;;;;;11.79;100.00;93566.03;2082837;28;20120;-86
2021/08/12 01:35:01;;;;;;;8.73;5.72;;;;;;;11.78;100.00;93563.75;2093235;28;20063;-84
2021/08/12 01:36:04;;;;;;;8.85;5.75;;;;;;;11.83;100.00;93569.41;2099570;28;20558;-86
2021/08/12 01:37:05;;;;;;;7.47;6.72;;;;;;;11.94;100.00;93565.75;2089154;28;20040;-84
2021/08/12 01:38:16;;;;;;;5.90;5.40;;;;;;;11.91;100.00;93563.94;2086805;28;20120;-88
2021/08/12 01:39:19;;;;;;;12.50;6.25;;;;;;;11.88;100.00;93560.16;2098952;28;20416;-85
2021/08/12 01:40:22;;;;;;;6.95;6.00;;;;;;;11.85;100.00;93560.97;2089440;28;20130;-87
2021/08/12 01:41:25;;;;;;;7.68;5.80;;;;;;;11.88;100.00;93559.38;2089487;28;20029;-85
2021/08/12 01:42:27;;;;;;;7.40;5.63;;;;;;;11.89;100.00;93558.22;2086476;28;20130;-85
2021/08/12 01:43:29;;;;;;;7.22;5.13;;;;;;;11.82;100.00;93554.53;2088757;28;20218;-87
2021/08/12 01:44:32;;;;;;;6.60;6.00;;;;;;;11.82;100.00;93559.88;2097522;28;20521;-85
2021/08/12 01:45:33;;;;;;;8.80;5.93;;;;;;;11.80;100.00;93564.09;2105455;28;20377;-84
2021/08/12 01:46:35;;;;;;;7.22;6.30;;;;;;;11.87;100.00;93555.22;2088972;28;20501;-85
2021/08/12 01:47:38;;;;;;;6.55;5.47;;;;;;;11.85;100.00;93552.91;2097196;28;20020;-84
2021/08/12 01:48:40;;;;;;;8.18;6.20;;;;;;;11.85;100.00;93550.25;2088564;28;20504;-87
2021/08/12 01:49:43;;;;;;;7.38;6.30;;;;;;;11.80;100.00;93553.38;2088397;28;20029;-84
2021/08/12 01:50:45;;;;;;;7.75;6.13;;;;;;;11.80;100.00;93550.69;2097342;28;20111;-85
2021/08/12 01:51:46;;;;;;;7.10;6.07;;;;;;;11.81;100.00;93553.00;2097381;28;20020;-85
2021/08/12 01:52:50;;;;;;;6.97;6.28;;;;;;;11.74;100.00;93550.44;2097262;28;20051;-86
2021/08/12 01:53:52;;;;;;;7.18;5.63;;;;;;;11.73;100.00;93553.53;2089096;28;20119;-84
2021/08/12 01:54:53;;;;;;;7.05;5.50;;;;;;;11.73;100.00;93548.19;2080500;28;20109;-84
2021/08/12 01:55:57;;;;;;;6.28;5.68;;;;;;;11.77;100.00;93546.19;2080832;28;20025;-86
2021/08/12 01:56:58;;;;;;;6.80;5.93;;;;;;;11.75;100.00;93543.16;2097523;28;20489;-85
2021/08/12 01:58:00;;;;;;;6.38;5.78;;;;;;;11.71;100.00;93548.56;2089101;28;20024;-85
2021/08/12 01:59:02;;;;;;;6.07;5.40;;;;;;;11.71;100.00;93543.22;2097573;28;20492;-87
2021/08/12 02:00:04;;;;;;;6.88;6.18;;;;;;;11.70;100.00;93547.06;2105023;28;20028;-87
2021/08/12 02:01:05;;;;;;;6.55;5.90;;;;;;;11.68;100.00;93548.66;2088668;28;20056;-86
2021/08/12 02:02:07;;;;;;;7.75;6.03;;;;;;;11.69;100.00;93542.88;2088755;28;20521;-88
2021/08/12 02:03:08;;;;;;;6.85;6.00;;;;;;;11.67;100.00;93544.44;2101738;28;20037;-85
2021/08/12 02:04:13;;;;;;;7.43;5.95;;;;;;;11.65;100.00;93549.47;2096913;28;20020;-86
2021/08/12 02:05:15;;;;;;;6.30;5.63;;;;;;;11.67;100.00;93531.81;2089620;28;20025;-86
2021/08/12 02:06:16;;;;;;;7.07;6.32;;;;;;;11.66;100.00;93541.03;2096427;28;20167;-84
2021/08/12 02:07:17;;;;;;;8.23;6.70;;;;;;;11.67;100.00;93537.16;2089012;28;20410;-85
2021/08/12 02:08:21;;;;;;;6.53;5.85;;;;;;;11.63;100.00;93541.09;2085024;28;20025;-86
2021/08/12 02:09:21;;;;;;;8.35;5.63;;;;;;;11.65;100.00;93539.50;2089257;28;20025;-86
2021/08/12 02:10:22;;;;;;;7.28;5.78;;;;;;;11.67;100.00;93536.41;2088570;28;20383;-89
2021/08/12 02:11:23;;;;;;;6.43;5.50;;;;;;;11.55;100.00;93541.22;2096756;28;20021;-84
2021/08/12 02:12:24;;;;;;;7.97;5.90;;;;;;;11.60;100.00;93537.31;2096744;28;20024;-84
2021/08/12 02:13:27;;;;;;;6.10;5.47;;;;;;;11.60;100.00;93537.31;2088719;28;20043;-84
2021/08/12 02:14:30;;;;;;;6.47;5.88;;;;;;;11.54;100.00;93536.28;2096652;28;20170;-85
2021/08/12 02:15:31;;;;;;;6.82;5.63;;;;;;;11.57;100.00;93536.22;2094143;28;20031;-85
2021/08/12 02:16:33;;;;;;;7.97;6.07;;;;;;;11.57;100.00;93533.53;2097163;28;20028;-87
2021/08/12 02:17:34;;;;;;;7.72;5.95;;;;;;;11.58;100.00;93529.69;2096506;28;20066;-85
2021/08/12 02:18:41;;;;;;;6.53;5.68;;;;;;;11.54;100.00;93531.66;2097079;28;20048;-83
2021/08/12 02:19:42;;;;;;;8.52;5.95;;;;;;;11.53;100.00;93529.41;2097728;28;20034;-85
2021/08/12 02:20:50;;;;;;;6.15;5.57;;;;;;;11.55;100.00;93525.16;2096814;28;20362;-84
2021/08/12 02:21:59;;;;;;;6.38;5.68;;;;;;;11.58;100.00;93528.94;2106262;28;20051;-86
2021/08/12 02:23:11;;;;;;;5.90;5.30;;;;;;;11.56;100.00;93528.59;2091686;28;20401;-84
2021/08/12 02:24:27;;;;;;;6.05;5.38;;;;;;;11.43;100.00;93530.38;2098541;28;20470;-84
2021/08/12 02:25:34;;;;;;;7.00;6.05;;;;;;;11.50;100.00;93527.56;2094056;28;20035;-85
2021/08/12 02:26:42;;;;;;;6.30;5.65;;;;;;;11.49;100.00;93526.78;2106129;28;20103;-86
2021/08/12 02:27:46;;;;;;;7.88;5.70;;;;;;;11.41;100.00;93530.75;2097775;28;20032;-86
2021/08/12 02:28:50;;;;;;;7.32;5.55;;;;;;;11.48;100.00;93524.53;2097480;28;20083;-86
2021/08/12 02:29:53;;;;;;;6.57;5.72;;;;;;;11.44;100.00;93529.97;2097249;28;20524;-84
2021/08/12 02:30:56;;;;;;;9.23;5.90;;;;;;;11.46;100.00;93526.88;2081267;28;20029;-85
2021/08/12 02:31:59;;;;;;;6.43;5.75;;;;;;;11.46;100.00;93522.28;2089237;28;20052;-85
2021/08/12 02:33:02;;;;;;;5.72;5.15;;;;;;;11.37;100.00;93522.06;2089313;28;20024;-84
2021/08/12 02:34:03;;;;;;;6.22;5.30;;;;;;;11.37;100.00;93514.03;2088819;28;20041;-85
2021/08/12 02:35:08;;;;;;;6.05;5.45;;;;;;;11.43;100.00;93520.41;2088736;28;20033;-84
2021/08/12 02:36:09;;;;;;;6.55;5.93;;;;;;;11.43;100.00;93517.75;2089495;28;20033;-87
2021/08/12 02:37:14;;;;;;;6.50;5.10;;;;;;;11.40;100.00;93518.56;2088585;28;20341;-84
2021/08/12 02:38:17;;;;;;;7.78;5.50;;;;;;;11.39;100.00;93514.38;2095251;28;20025;-87
2021/08/12 02:39:18;;;;;;;7.03;5.43;;;;;;;11.37;100.00;93516.72;2097292;28;20095;-87
2021/08/12 02:40:22;;;;;;;9.82;6.40;;;;;;;11.40;100.00;93515.88;2088580;28;20107;-85
2021/08/12 02:41:23;;;;;;;9.70;5.90;;;;;;;11.35;100.00;93525.13;2097428;28;20496;-86
2021/08/12 02:42:24;;;;;;;7.57;6.07;;;;;;;11.29;100.00;93518.00;2085212;28;20021;-87
2021/08/12 02:43:27;;;;;;;6.35;5.75;;;;;;;11.34;100.00;93520.22;2088939;28;20454;-87
2021/08/12 02:44:30;;;;;;;7.00;5.70;;;;;;;11.29;100.00;93518.75;2105890;28;20084;-85
2021/08/12 02:45:33;;;;;;;5.68;5.07;;;;;;;11.32;100.00;93515.25;2104668;28;20026;-85
2021/08/12 02:46:35;;;;;;;6.30;5.70;;;;;;;11.34;100.00;93518.28;2089192;28;20032;-88
2021/08/12 02:47:39;;;;;;;7.28;5.78;;;;;;;11.31;100.00;93516.41;2097066;28;20027;-84
2021/08/12 02:48:40;;;;;;;6.78;6.00;;;;;;;11.33;100.00;93522.13;2105060;28;20027;-84
2021/08/12 02:49:44;;;;;;;7.40;5.25;;;;;;;11.33;100.00;93516.78;2097014;28;20113;-86
2021/08/12 02:50:46;;;;;;;6.75;5.82;;;;;;;11.29;100.00;93515.34;2097547;28;20074;-86
2021/08/12 02:51:50;;;;;;;5.75;4.95;;;;;;;11.27;100.00;93518.41;2096345;28;20073;-85
2021/08/12 02:52:51;;;;;;;7.47;5.82;;;;;;;11.30;100.00;93519.50;2097771;28;20024;-86
2021/08/12 02:53:54;;;;;;;9.05;5.38;;;;;;;11.29;100.00;93520.69;2096627;28;20024;-85
2021/08/12 02:54:55;;;;;;;8.35;5.75;;;;;;;11.23;100.00;93520.38;2089108;28;20028;-84
2021/08/12 02:55:57;;;;;;;7.30;5.35;;;;;;;11.28;100.00;93527.19;2096798;28;20078;-87
2021/08/12 02:56:58;;;;;;;6.97;5.20;;;;;;;11.22;100.00;93518.13;2096190;28;20118;-83
2021/08/12 02:58:00;;;;;;;6.13;5.50;;;;;;;11.15;100.00;93523.59;2088645;28;20474;-84
2021/08/12 02:59:04;;;;;;;7.68;5.60;;;;;;;11.19;100.00;93522.38;2088886;28;20093;-86
2021/08/12 03:00:06;;;;;;;7.38;5.60;;;;;;;11.16;100.00;93527.81;2097656;28;20028;-84
2021/08/12 03:01:08;;;;;;;8.57;6.10;;;;;;;11.18;100.00;93520.84;2097452;28;20027;-85
2021/08/12 03:02:10;;;;;;;9.02;5.72;;;;;;;11.18;100.00;93520.84;2098620;28;20020;-84
2021/08/12 03:03:12;;;;;;;6.55;5.32;;;;;;;11.11;100.00;93521.00;2103745;28;20070;-85
2021/08/12 03:04:13;;;;;;;6.05;5.45;;;;;;;11.18;100.00;93525.47;2106752;28;20020;-87
2021/08/12 03:05:14;;;;;;;6.82;5.35;;;;;;;11.20;100.00;93521.22;2090139;28;20124;-85
2021/08/12 03:06:18;;;;;;;6.10;5.50;;;;;;;11.20;100.00;93520.47;2089858;28;20079;-86
2021/08/12 03:07:20;;;;;;;5.40;4.90;;;;;;;11.24;100.00;93521.91;2107127;28;20024;-86
2021/08/12 03:08:24;;;;;;;8.52;5.63;;;;;;;11.22;100.00;93521.56;2104874;28;20376;-85
2021/08/12 03:09:26;;;;;;;6.03;5.07;;;;;;;11.16;100.00;93525.13;2098675;28;20021;-85
2021/08/12 03:10:28;;;;;;;7.15;5.70;;;;;;;11.09;100.00;93526.00;2107143;27;20473;-85
2021/08/12 03:11:30;;;;;;;7.95;6.10;;;;;;;11.14;100.00;93519.41;2106506;28;20066;-84
2021/08/12 03:12:31;;;;;;;7.88;5.90;;;;;;;11.17;100.00;93521.28;2098550;28;20020;-85
2021/08/12 03:13:34;;;;;;;5.63;5.13;;;;;;;11.17;100.00;93519.34;2098295;28;20048;-84
2021/08/12 03:14:36;;;;;;;6.45;5.53;;;;;;;11.16;100.00;93520.53;2090371;28;20025;-86
2021/08/12 03:15:38;;;;;;;8.93;5.00;;;;;;;11.19;100.00;93524.28;2090432;28;20084;-88
2021/08/12 03:16:40;;;;;;;5.78;5.22;;;;;;;11.15;100.00;93519.03;2090127;28;20107;-87
2021/08/12 03:17:42;;;;;;;6.18;5.13;;;;;;;11.13;100.00;93523.25;2098386;28;20040;-83
2021/08/12 03:18:43;;;;;;;7.72;5.28;;;;;;;11.15;100.00;93518.25;2090100;28;20028;-85
2021/08/12 03:19:44;;;;;;;6.22;5.43;;;;;;;11.13;100.00;93520.59;2098080;28;20038;-88
2021/08/12 03:20:45;;;;;;;9.27;5.70;;;;;;;11.14;100.00;93519.41;2106681;28;20020;-85
2021/08/12 03:22:01;;;;;;;6.03;5.40;;;;;;;11.06;100.00;93516.88;2098122;28;20028;-86
2021/08/12 03:23:02;;;;;;;6.22;5.60;;;;;;;11.08;100.00;93519.88;2091836;28;20086;-86
2021/08/12 03:24:04;;;;;;;9.25;5.80;;;;;;;11.03;100.00;93517.69;2098372;28;20028;-86
2021/08/12 03:25:06;;;;;;;6.25;5.35;;;;;;;11.09;100.00;93520.63;2098498;28;20036;-85
2021/08/12 03:26:07;;;;;;;7.63;6.20;;;;;;;11.10;100.00;93514.88;2097990;28;20024;-87
2021/08/12 03:27:11;;;;;;;7.35;5.97;;;;;;;11.10;100.00;93516.78;2090103;28;20028;-85
2021/08/12 03:28:12;;;;;;;6.40;5.63;;;;;;;11.10;100.00;93514.88;2090518;28;20020;-85
2021/08/12 03:29:12;;;;;;;6.20;5.60;;;;;;;11.01;100.00;93511.97;2098056;28;20112;-87
2021/08/12 03:30:14;;;;;;;6.97;5.78;;;;;;;11.09;100.00;93518.72;2097946;28;20024;-85
2021/08/12 03:31:15;;;;;;;8.20;5.20;;;;;;;11.07;100.00;93521.06;2097620;28;20024;-85
2021/08/12 03:32:16;;;;;;;7.50;5.88;;;;;;;11.04;100.00;93511.16;2089972;28;20043;-85
2021/08/12 03:33:17;;;;;;;8.07;5.85;;;;;;;11.03;100.00;93514.25;2098255;28;20111;-85
2021/08/12 03:34:18;;;;;;;13.40;6.00;;;;;;;11.05;100.00;93515.34;2090207;28;20028;-86
2021/08/12 03:35:19;;;;;;;8.98;5.80;;;;;;;11.02;100.00;93513.50;2106497;28;20535;-84
2021/08/12 03:36:21;;;;;;;8.18;5.05;;;;;;;10.99;100.00;93518.91;2106103;28;20058;-86
2021/08/12 03:37:22;;;;;;;5.97;5.05;;;;;;;11.01;100.00;93511.22;2098005;28;20021;-86
2021/08/12 03:38:23;;;;;;;6.55;5.47;;;;;;;11.06;100.00;93521.44;2096168;28;20017;-86
2021/08/12 03:39:24;;;;;;;6.22;5.63;;;;;;;11.06;100.00;93511.53;2098459;28;20504;-83
2021/08/12 03:40:25;;;;;;;7.60;6.18;;;;;;;10.98;100.00;93520.06;2106415;28;20047;-86
2021/08/12 03:41:26;;;;;;;6.75;5.28;;;;;;;10.99;100.00;93522.34;2097920;28;20028;-85
2021/08/12 03:42:27;;;;;;;6.75;5.32;;;;;;;11.01;100.00;93527.28;2093523;28;20072;-83
2021/08/12 03:43:28;;;;;;;6.40;5.78;;;;;;;11.01;100.00;93521.91;2103380;28;20023;-85
2021/08/12 03:44:28;;;;;;;6.63;5.80;;;;;;;11.05;100.00;93520.69;2106260;28;20032;-88
2021/08/12 03:45:29;;;;;;;6.38;5.78;;;;;;;11.03;100.00;93520.34;2098052;28;20040;-84
2021/08/12 03:46:31;;;;;;;7.03;5.50;;;;;;;11.01;100.00;93521.91;2097944;28;20024;-85
2021/08/12 03:47:32;;;;;;;7.25;5.88;;;;;;;11.01;100.00;93525.34;2097902;28;20025;-85
2021/08/12 03:48:33;;;;;;;8.27;5.75;;;;;;;11.03;100.00;93525.72;2089155;28;20025;-86
2021/08/12 03:49:34;;;;;;;6.05;5.55;;;;;;;11.02;100.00;93520.78;2098170;28;20020;-87
2021/08/12 03:50:35;;;;;;;7.65;5.97;;;;;;;10.99;100.00;93525.00;2106523;28;20028;-84
2021/08/12 03:51:36;;;;;;;5.65;5.15;;;;;;;10.99;100.00;93526.94;2114556;28;20114;-87
2021/08/12 03:52:37;;;;;;;7.07;5.75;;;;;;;10.91;100.00;93518.25;2106190;28;20032;-83
2021/08/12 03:53:38;;;;;;;6.43;5.63;;;;;;;10.89;100.00;93519.81;2097912;28;20107;-87
2021/08/12 03:54:39;;;;;;;8.10;6.28;;;;;;;10.94;100.00;93519.38;2097937;28;20027;-86
2021/08/12 03:55:40;;;;;;;7.25;5.95;;;;;;;10.95;100.00;93516.28;2089986;28;20072;-85
2021/08/12 03:56:41;;;;;;;6.78;5.88;;;;;;;10.94;100.00;93511.34;2097707;28;20012;-84
2021/08/12 03:57:44;;;;;;;5.90;5.30;;;;;;;10.96;100.00;93507.09;2098073;28;20025;-89
2021/08/12 03:58:45;;;;;;;7.53;5.65;;;;;;;10.96;100.00;93507.09;2098094;28;20024;-87
2021/08/12 03:59:46;;;;;;;7.38;5.90;;;;;;;10.92;100.00;93511.75;2089364;28;20025;-88
2021/08/12 04:00:46;;;;;;;6.00;5.50;;;;;;;10.95;100.00;93512.88;2098180;28;20469;-85
2021/08/12 04:01:48;;;;;;;9.02;5.60;;;;;;;10.93;100.00;93515.94;2097966;28;20051;-84
2021/08/12 04:02:49;;;;;;;6.22;5.03;;;;;;;10.95;100.00;93508.25;2094645;28;20021;-86
2021/08/12 04:03:50;;;;;;;7.38;5.88;;;;;;;10.99;100.00;93517.00;2097911;28;20080;-84
2021/08/12 04:04:50;;;;;;;6.28;5.65;;;;;;;11.01;100.00;93520.00;2089704;28;20017;-85
2021/08/12 04:05:51;;;;;;;8.88;5.78;;;;;;;11.01;100.00;93514.66;2089034;28;20091;-86
2021/08/12 04:06:52;;;;;;;8.95;6.13;;;;;;;10.93;100.00;93517.84;2089484;28;20029;-85
2021/08/12 04:07:53;;;;;;;6.63;5.75;;;;;;;10.93;100.00;93513.28;2103868;28;20183;-83
2021/08/12 04:08:54;;;;;;;7.45;5.53;;;;;;;10.87;100.00;93517.56;2106302;28;20105;-85
2021/08/12 04:09:55;;;;;;;6.63;5.70;;;;;;;10.86;100.00;93518.72;2098003;28;20456;-84
2021/08/12 04:10:56;;;;;;;6.57;5.53;;;;;;;10.86;100.00;93504.59;2097245;28;20024;-87
2021/08/12 04:11:57;;;;;;;6.00;5.50;;;;;;;10.92;100.00;93513.66;2097283;28;20032;-86
2021/08/12 04:12:58;;;;;;;10.60;5.63;;;;;;;10.94;100.00;93522.06;2097082;28;20115;-87
2021/08/12 04:13:59;;;;;;;7.20;5.88;;;;;;;10.94;100.00;93520.13;2097659;28;20487;-86
2021/08/12 04:14:59;;;;;;;7.43;6.15;;;;;;;10.96;100.00;93519.72;2097791;28;20275;-85
2021/08/12 04:16:00;;;;;;;6.53;5.60;;;;;;;10.94;100.00;93514.03;2097789;28;20481;-84
2021/08/12 04:17:01;;;;;;;6.63;5.85;;;;;;;10.95;100.00;93518.97;2088933;28;20029;-85
2021/08/12 04:18:03;;;;;;;8.35;5.60;;;;;;;10.95;100.00;93512.88;2089294;28;20079;-86
2021/08/12 04:19:04;;;;;;;6.90;5.28;;;;;;;10.89;100.00;93509.91;2089452;28;20136;-87
2021/08/12 04:20:05;;;;;;;6.43;5.80;;;;;;;10.91;100.00;93518.25;2089358;28;20091;-87
2021/08/12 04:21:06;;;;;;;6.00;5.50;;;;;;;10.85;100.00;93522.56;2089501;28;20166;-86
2021/08/12 04:22:08;;;;;;;7.10;5.38;;;;;;;10.88;100.00;93516.41;2097214;28;20036;-84
2021/08/12 04:23:09;;;;;;;6.30;5.53;;;;;;;10.87;100.00;93517.56;2089272;28;20025;-88
2021/08/12 04:24:10;;;;;;;8.05;5.70;;;;;;;10.87;100.00;93522.16;2097885;28;20025;-83
2021/08/12 04:25:12;;;;;;;7.97;6.03;;;;;;;10.91;100.00;93525.53;2097609;28;20056;-87
2021/08/12 04:26:12;;;;;;;7.07;5.82;;;;;;;10.88;100.00;93526.34;2097797;28;20051;-84
2021/08/12 04:27:14;;;;;;;9.35;6.30;;;;;;;10.92;100.00;93519.00;2106044;28;20162;-87
2021/08/12 04:28:15;;;;;;;6.25;5.68;;;;;;;10.92;100.00;93521.69;2113894;28;20023;-86
2021/08/12 04:29:16;;;;;;;8.27;5.65;;;;;;;10.90;100.00;93521.34;2097373;28;20027;-86
2021/08/12 04:30:17;;;;;;;6.57;5.97;;;;;;;10.88;100.00;93516.41;2089217;28;20055;-86
2021/08/12 04:31:18;;;;;;;6.10;5.50;;;;;;;10.82;100.00;93521.47;2097720;28;20032;-86
2021/08/12 04:32:19;;;;;;;6.65;5.90;;;;;;;10.86;100.00;93518.72;2097276;28;20112;-86
2021/08/12 04:33:20;;;;;;;8.70;5.85;;;;;;;10.83;100.00;93516.88;2105734;28;20063;-85
2021/08/12 04:34:21;;;;;;;8.43;5.35;;;;;;;10.86;100.00;93516.06;2105652;28;20250;-84
2021/08/12 04:35:21;;;;;;;6.65;5.63;;;;;;;10.89;100.00;93509.91;2089157;28;20030;-85
2021/08/12 04:36:22;;;;;;;8.07;5.57;;;;;;;10.84;100.00;93505.00;2097632;28;20028;-84
2021/08/12 04:37:23;;;;;;;6.40;5.88;;;;;;;10.90;100.00;93511.41;2105694;28;20028;-87
2021/08/12 04:38:27;;;;;;;7.68;5.70;;;;;;;10.96;100.00;93501.00;2103129;28;20023;-87
2021/08/12 04:39:28;;;;;;;7.13;5.93;;;;;;;10.99;100.00;93500.19;2096889;28;20020;-83
2021/08/12 04:40:29;;;;;;;6.28;5.53;;;;;;;10.98;100.00;93512.81;2094353;28;20085;-86
2021/08/12 04:41:30;;;;;;;6.95;5.72;;;;;;;11.00;100.00;93513.13;2106078;28;20465;-87
2021/08/12 04:42:31;;;;;;;6.57;5.70;;;;;;;11.02;100.00;93513.50;2093653;28;20499;-87
2021/08/12 04:43:32;;;;;;;6.45;5.82;;;;;;;11.08;100.00;93506.50;2089182;28;20060;-85
2021/08/12 04:44:33;;;;;;;7.28;5.70;;;;;;;11.13;100.00;93509.88;2089242;28;20028;-85
2021/08/12 04:45:35;;;;;;;6.90;6.20;;;;;;;11.12;100.00;93511.06;2088816;28;20064;-87
2021/08/12 04:46:35;;;;;;;6.43;5.57;;;;;;;11.15;100.00;93508.31;2089323;28;20102;-86
2021/08/12 04:47:37;;;;;;;8.27;6.50;;;;;;;11.19;100.00;93508.97;2089200;28;20063;-84
2021/08/12 04:48:38;;;;;;;7.18;6.40;;;;;;;11.22;100.00;93510.84;2097514;28;20128;-86
2021/08/12 04:49:39;;;;;;;7.38;6.13;;;;;;;11.22;100.00;93499.41;2089683;28;20078;-83
2021/08/12 04:50:40;;;;;;;6.50;5.90;;;;;;;11.23;100.00;93504.31;2096968;28;20455;-86
2021/08/12 04:51:44;;;;;;;11.55;6.60;;;;;;;11.28;100.00;93509.22;2097458;28;20134;-84